Pagrindinis puslapis
METAR-TAF:

METAR-TAF

Oro uostai :

Sukhothai, Tailandas

platuma: 17-14-16N, ilguma: 099-49-05E, Aukštis: 55 m

Dabartinis oras

Ataskaita buvo paskelbta 11 valandos ir 17 minutes, ne 10:00 UTC
Vėjas 6 kt iš Šiaurės Vakarų
Temperatūra 30°C
Drėgmė 75%
Slėgis 1005 hPa
Matomumas 10 km arba daugiau
Mažai debesys ne aukštis 2000 ft, aukštai iškilę kamuoliniai debesys.
Išsisklaidę debesys ne aukštis 2500 ft

METAR: VTPO 201000Z 32006KT 9999 FEW020TCU SCT025 30/25 Q1005 NOSIG

Laikas: 04:17 (21:17 UTC)

Prognozė

Ataskaita buvo paskelbta 4 valandos ir 17 minutes, ne 17:00 UTC
Prognozė galioja nuo 20 metu 18 UTC su 21 metu 18 UTC
Vėjas 5 kt iš Pietų
Matomumas 10 km arba daugiau
Išsisklaidę debesys ne aukštis 2500 ft
Laikinai
nuo 21 metu 06 UTC su 21 metu 12 UTC
Vėjas 15 kt nuo kintamojo kryptimis su gūsio iki 25 kt
Matomumas: 5000 m
Mažai debesys ne aukštis 2000 ft, Liūtiniai kamuoliniai debesys.
Su prošvaistėmis ne aukštis 2500 ft
perkūnija, lietus

TAF: VTPO 201700Z 2018/2118 17005KT 9999 SCT025 TEMPO 2106/2112 VRB15G25KT 5000 TSRA FEW020CB BKN025

Orai ataskaitas ir orų prognozės (METAR, TAF).

turimą stotys yra geltonos ir raudonos taškus žemėlapyje.

Perkelti pele per norėdami pamatyti stoties vardą.

Tada spustelėkite, norėdami matyti oro stebėjimo ir prognozės.

Norėdami pakeisti žemėlapį: spustelėkite ant žalios mygtukų su juodo kryžiaus žemyn,; žalią mygtuką su brūkšneliu, jei norite nutolinti; arba žalių rodyklių gretimoms žemėlapius.


METAR-TAF: